Main page
METAR-TAF:

METAR-TAF

Airports :

Nanjing Lukou International Airport

Nanjing, China

latitude: 32-00N, longitude: 118-48E, elevation: 12 m

Current weather observation

The report was made 44 minutes ago, at 08:00 UTC
Wind 8 kt from the East/Southeast
Temperature 21°C
Humidity 53%
Pressure 1019 hPa
Visibility 10 km or more
no clouds below 1500 m and no cumulonimbus

METAR: ZSNJ 220800Z 11004MPS CAVOK 21/11 Q1019 NOSIG

Time: 16:44 (08:44 UTC)

Forecast

The report was made 5 hours and 42 minutes ago, at 03:02 UTC
Forecast valid from 22 at 06 UTC to 23 at 06 UTC
Wind 6 kt from the East
Visibility: 3000 m
haze

TAF: ZSNJ 220302Z 2206/2306 10003MPS 3000 HZ NSC TX22/2206Z TN14/2222Z

Weather observations and forecasts of more than 4000 airports (METAR and TAF reports).

The available stations are represented by yellow and red dots on the map.

Hover mouse over dot to see the name of the station.

Then click to see weather observations and forecasts.

To change the map : click on the green buttons with a black cross to zoom in, on the green button with a dash to zoom out, or on the green arrows for adjacent maps.


METAR-TAF: